createdAt,value
2019-05-19T00:00:25.692Z,16.49
2019-05-19T00:03:04.413Z,16.57
2019-05-19T00:05:39.249Z,16.51
2019-05-19T00:08:12.167Z,16.43
2019-05-19T00:10:47.144Z,16.39
2019-05-19T00:13:20.687Z,16.35
2019-05-19T00:15:53.293Z,16.42
2019-05-19T00:18:25.917Z,16.36
2019-05-19T00:21:00.319Z,16.33
2019-05-19T00:23:32.973Z,16.29
2019-05-19T00:26:06.456Z,16.25
2019-05-19T00:28:39.756Z,16.23
2019-05-19T00:31:12.247Z,16.17
2019-05-19T00:33:44.797Z,16.13
2019-05-19T00:36:19.585Z,16.11
2019-05-19T00:38:52.423Z,16.08
2019-05-19T00:41:25.685Z,16.04
2019-05-19T00:43:58.204Z,16.01
2019-05-19T00:46:30.846Z,16.00
2019-05-19T00:49:04.196Z,16.03
2019-05-19T00:51:36.832Z,15.95
2019-05-19T00:54:09.305Z,15.91
2019-05-19T00:56:42.147Z,15.84
2019-05-19T00:59:14.669Z,15.80
2019-05-19T01:01:47.276Z,15.77
2019-05-19T01:04:20.836Z,15.76
2019-05-19T01:06:53.541Z,15.74
2019-05-19T01:09:26.060Z,15.71
2019-05-19T01:11:58.661Z,15.74
2019-05-19T01:14:34.614Z,15.66
2019-05-19T01:17:07.272Z,15.62
2019-05-19T01:19:39.804Z,15.60
2019-05-19T01:22:12.391Z,15.60
2019-05-19T01:24:47.640Z,15.55
2019-05-19T01:27:20.238Z,15.46
2019-05-19T01:29:52.716Z,15.49
2019-05-19T01:32:25.167Z,15.41
2019-05-19T01:34:57.704Z,15.34
2019-05-19T01:37:30.641Z,15.40
2019-05-19T01:40:07.651Z,15.31
2019-05-19T01:42:40.125Z,15.24
2019-05-19T01:45:14.636Z,15.19
2019-05-19T01:47:47.235Z,15.15
2019-05-19T01:50:20.671Z,15.12
2019-05-19T01:52:53.871Z,15.09
2019-05-19T01:55:27.559Z,15.07
2019-05-19T01:58:01.734Z,15.05
2019-05-19T02:00:34.383Z,15.02
2019-05-19T02:03:08.990Z,14.98
2019-05-19T02:05:41.640Z,14.93
2019-05-19T02:08:14.927Z,14.88
2019-05-19T02:10:47.604Z,14.86
2019-05-19T02:13:20.080Z,14.86
2019-05-19T02:15:53.193Z,14.83
2019-05-19T02:18:25.703Z,14.82
2019-05-19T02:20:58.214Z,14.81
2019-05-19T02:23:31.091Z,14.78
2019-05-19T02:26:03.850Z,14.75
2019-05-19T02:28:36.435Z,14.72
2019-05-19T02:31:09.520Z,14.80
2019-05-19T02:33:41.994Z,14.74
2019-05-19T02:36:14.462Z,14.72
2019-05-19T02:38:46.985Z,14.68
2019-05-19T02:41:19.553Z,14.64
2019-05-19T02:43:53.050Z,14.62
2019-05-19T02:46:25.797Z,14.60
2019-05-19T02:48:59.386Z,14.55
2019-05-19T02:51:32.660Z,14.50
2019-05-19T02:54:06.068Z,14.49
2019-05-19T02:56:38.721Z,14.44
2019-05-19T02:59:11.365Z,14.39
2019-05-19T03:02:05.451Z,14.35
2019-05-19T03:04:50.239Z,14.40
2019-05-19T03:07:22.895Z,14.33
2019-05-19T03:09:55.355Z,14.30
2019-05-19T03:12:27.828Z,14.27
2019-05-19T03:15:03.197Z,14.25
2019-05-19T03:17:35.832Z,14.35
2019-05-19T03:20:09.861Z,14.31
2019-05-19T03:22:42.421Z,14.28
2019-05-19T03:25:16.936Z,14.23
2019-05-19T03:27:49.684Z,14.21
2019-05-19T03:30:45.355Z,14.30
2019-05-19T03:33:21.522Z,14.26
2019-05-19T03:35:55.782Z,14.26
2019-05-19T03:38:28.443Z,14.14
2019-05-19T03:41:00.974Z,14.05
2019-05-19T03:43:33.567Z,14.06
2019-05-19T03:46:06.377Z,14.11
2019-05-19T03:48:39.122Z,14.17
2019-05-19T03:51:29.457Z,14.22
2019-05-19T03:54:04.368Z,14.24
2019-05-19T03:56:36.900Z,14.24
2019-05-19T03:59:09.412Z,14.24
2019-05-19T04:01:42.038Z,14.23
2019-05-19T04:04:14.723Z,14.25
2019-05-19T04:06:47.307Z,14.20
2019-05-19T04:09:19.750Z,14.18
2019-05-19T04:11:52.607Z,14.12
2019-05-19T04:14:25.186Z,14.13
2019-05-19T04:16:57.599Z,14.11
2019-05-19T04:19:30.071Z,14.15
2019-05-19T04:22:02.618Z,14.18
2019-05-19T04:24:36.761Z,14.25
2019-05-19T04:27:09.201Z,14.28
2019-05-19T04:29:41.950Z,14.38
2019-05-19T04:32:14.497Z,14.46
2019-05-19T04:34:50.216Z,14.45
2019-05-19T04:37:22.704Z,14.41
2019-05-19T04:39:55.302Z,14.39
2019-05-19T04:42:27.915Z,14.42
2019-05-19T04:45:00.538Z,14.44
2019-05-19T04:47:36.126Z,14.46
2019-05-19T04:50:08.735Z,14.48
2019-05-19T04:52:41.275Z,14.53
2019-05-19T04:55:13.930Z,14.58
2019-05-19T04:57:47.817Z,14.64
2019-05-19T05:00:20.486Z,14.75
2019-05-19T05:02:53.617Z,14.78
2019-05-19T05:05:27.264Z,14.81
2019-05-19T05:07:59.823Z,14.83
2019-05-19T05:10:32.364Z,14.84
2019-05-19T05:13:04.983Z,14.85
2019-05-19T05:15:37.616Z,14.88
2019-05-19T05:18:10.116Z,14.93
2019-05-19T05:20:42.775Z,14.98
2019-05-19T05:23:15.974Z,15.02
2019-05-19T05:25:48.739Z,15.07
2019-05-19T05:28:22.383Z,15.13
2019-05-19T05:30:54.852Z,15.24
2019-05-19T05:33:27.672Z,15.29
2019-05-19T05:36:01.124Z,15.34
2019-05-19T05:38:35.359Z,15.40
2019-05-19T05:41:07.838Z,15.48
2019-05-19T05:43:41.237Z,15.55
2019-05-19T05:46:13.892Z,15.62
2019-05-19T05:48:49.635Z,15.69
2019-05-19T05:51:25.370Z,15.76
2019-05-19T05:53:59.766Z,15.91
2019-05-19T05:56:33.920Z,16.02
2019-05-19T05:59:15.415Z,16.13
2019-05-19T06:01:51.653Z,16.25
2019-05-19T06:04:25.176Z,16.36
2019-05-19T06:06:58.709Z,16.44
2019-05-19T06:09:33.703Z,16.51
2019-05-19T06:12:06.822Z,16.54
2019-05-19T06:14:43.527Z,16.56
2019-05-19T06:17:17.008Z,16.56
2019-05-19T06:19:50.528Z,16.62
2019-05-19T06:22:25.296Z,16.65
2019-05-19T06:24:59.516Z,16.72
2019-05-19T06:27:32.300Z,16.83
2019-05-19T06:30:08.959Z,16.99
2019-05-19T06:32:47.948Z,17.11
2019-05-19T06:35:20.656Z,17.21
2019-05-19T06:37:53.916Z,17.30
2019-05-19T06:40:26.732Z,17.38
2019-05-19T06:43:00.892Z,17.46
2019-05-19T06:45:34.250Z,17.53
2019-05-19T06:48:07.128Z,17.55
2019-05-19T06:51:07.567Z,17.55
2019-05-19T06:53:41.959Z,17.64
2019-05-19T06:56:14.581Z,17.77
2019-05-19T06:58:48.884Z,17.94
2019-05-19T07:01:21.493Z,18.09
2019-05-19T07:03:54.096Z,18.17
2019-05-19T07:06:26.936Z,18.26
2019-05-19T07:08:59.428Z,18.35
2019-05-19T07:11:33.120Z,18.43
2019-05-19T07:14:05.665Z,18.52
2019-05-19T07:16:38.273Z,18.59
2019-05-19T07:19:10.765Z,18.64
2019-05-19T07:21:43.510Z,18.75
2019-05-19T07:24:16.172Z,18.92
2019-05-19T07:26:48.786Z,19.14
2019-05-19T07:29:24.562Z,19.33
2019-05-19T07:31:58.148Z,19.56
2019-05-19T07:34:31.843Z,19.75
2019-05-19T07:37:05.143Z,19.83
2019-05-19T07:39:39.033Z,19.90
2019-05-19T07:42:13.339Z,19.92
2019-05-19T07:44:46.005Z,19.71
2019-05-19T07:47:19.396Z,19.54
2019-05-19T07:49:51.984Z,19.42
2019-05-19T07:52:26.352Z,19.53
2019-05-19T07:55:03.471Z,19.70
2019-05-19T07:57:44.588Z,19.73
2019-05-19T08:00:17.160Z,19.67
2019-05-19T08:02:51.330Z,19.81
2019-05-19T08:05:24.050Z,20.07
2019-05-19T08:07:56.644Z,20.31
2019-05-19T08:10:29.271Z,20.49
2019-05-19T08:13:01.933Z,20.73
2019-05-19T08:15:35.611Z,20.90
2019-05-19T08:18:08.376Z,21.03
2019-05-19T08:20:41.550Z,21.13
2019-05-19T08:23:14.204Z,21.03
2019-05-19T08:25:49.383Z,21.03
2019-05-19T08:28:23.496Z,21.14
2019-05-19T08:31:02.731Z,21.23
2019-05-19T08:33:41.804Z,21.22
2019-05-19T08:36:14.698Z,21.27
2019-05-19T08:38:47.132Z,21.45
2019-05-19T08:41:19.495Z,21.57
2019-05-19T08:43:59.418Z,21.74
2019-05-19T08:46:32.040Z,21.82
2019-05-19T08:49:04.461Z,21.97
2019-05-19T08:51:37.360Z,22.12
2019-05-19T08:54:14.864Z,22.30
2019-05-19T08:56:50.266Z,22.47
2019-05-19T08:59:22.661Z,22.56
2019-05-19T09:01:55.012Z,22.70
2019-05-19T09:04:28.363Z,22.92
2019-05-19T09:07:01.643Z,23.18
2019-05-19T09:09:34.998Z,23.41
2019-05-19T09:12:07.325Z,23.55
2019-05-19T09:14:40.064Z,23.69
2019-05-19T09:17:13.225Z,23.79
2019-05-19T09:19:45.682Z,23.91
2019-05-19T09:22:18.696Z,24.03
2019-05-19T09:24:52.065Z,24.16
2019-05-19T09:27:24.367Z,24.29
2019-05-19T09:29:58.284Z,24.50
2019-05-19T09:32:32.488Z,24.58
2019-05-19T09:35:07.632Z,24.57
2019-05-19T09:37:46.671Z,24.56
2019-05-19T09:40:20.946Z,24.61
2019-05-19T09:42:54.884Z,24.63
2019-05-19T09:45:29.134Z,24.52
2019-05-19T09:48:09.589Z,24.52
2019-05-19T09:50:46.551Z,24.64
2019-05-19T09:53:18.908Z,24.74
2019-05-19T09:55:52.949Z,24.62
2019-05-19T09:58:26.545Z,24.57
2019-05-19T10:01:00.966Z,24.49
2019-05-19T10:03:34.200Z,24.49
2019-05-19T10:06:07.665Z,24.59
2019-05-19T10:09:01.087Z,24.72
2019-05-19T10:12:04.509Z,24.84
2019-05-19T10:14:38.894Z,24.86
2019-05-19T10:17:12.906Z,24.90
2019-05-19T10:19:45.331Z,24.98
2019-05-19T10:22:20.106Z,25.09
2019-05-19T10:25:18.108Z,25.17
2019-05-19T10:27:55.697Z,25.36
2019-05-19T10:30:30.028Z,25.60
2019-05-19T10:33:03.996Z,25.77
2019-05-19T10:35:37.440Z,25.80
2019-05-19T10:38:11.795Z,25.81
2019-05-19T10:40:44.222Z,25.82
2019-05-19T10:43:19.000Z,25.81
2019-05-19T10:45:59.878Z,25.82
2019-05-19T10:48:32.943Z,25.93
2019-05-19T10:51:06.318Z,26.20
2019-05-19T10:53:38.711Z,26.39
2019-05-19T10:56:11.059Z,26.49
2019-05-19T10:58:44.473Z,26.57
2019-05-19T11:01:16.885Z,26.57
2019-05-19T11:03:49.326Z,26.53
2019-05-19T11:06:22.179Z,26.57
2019-05-19T11:08:55.217Z,26.73
2019-05-19T11:11:28.312Z,26.92
2019-05-19T11:14:03.244Z,27.10
2019-05-19T11:16:35.634Z,27.33
2019-05-19T11:19:08.085Z,27.50
2019-05-19T11:21:40.445Z,27.58
2019-05-19T11:24:15.612Z,27.72
2019-05-19T11:26:48.588Z,27.75
2019-05-19T11:29:21.240Z,27.67
2019-05-19T11:31:53.887Z,27.72
2019-05-19T11:34:27.331Z,27.74
2019-05-19T11:37:00.916Z,27.78
2019-05-19T11:39:35.241Z,27.79
2019-05-19T11:42:08.833Z,27.76
2019-05-19T11:44:42.368Z,27.90
2019-05-19T11:47:14.927Z,28.08
2019-05-19T11:49:47.461Z,28.29
2019-05-19T11:52:21.512Z,28.28
2019-05-19T11:54:55.468Z,28.09
2019-05-19T11:57:28.144Z,28.21
2019-05-19T12:00:04.496Z,28.65
2019-05-19T12:02:37.030Z,28.97
2019-05-19T12:05:10.880Z,29.08
2019-05-19T12:07:43.561Z,29.15
2019-05-19T12:10:16.812Z,29.28
2019-05-19T12:12:50.421Z,29.43
2019-05-19T12:15:23.089Z,29.56
2019-05-19T12:17:58.751Z,29.61
2019-05-19T12:20:32.897Z,29.68
2019-05-19T12:23:05.553Z,29.81
2019-05-19T12:25:38.948Z,29.64
2019-05-19T12:28:11.798Z,29.41
2019-05-19T12:30:47.222Z,29.14
2019-05-19T12:33:20.121Z,28.85
2019-05-19T12:35:53.740Z,28.53
2019-05-19T12:38:26.733Z,28.15
2019-05-19T12:40:59.524Z,28.06
2019-05-19T12:43:35.954Z,27.90
2019-05-19T12:46:16.442Z,27.85
2019-05-19T12:48:50.366Z,27.65
2019-05-19T12:51:26.675Z,27.55
2019-05-19T12:53:59.591Z,27.50
2019-05-19T12:56:39.857Z,27.42
2019-05-19T12:59:16.629Z,27.23
2019-05-19T13:01:49.378Z,26.93
2019-05-19T13:04:23.837Z,26.79
2019-05-19T13:06:59.372Z,26.51
2019-05-19T13:09:37.613Z,26.34
2019-05-19T13:12:10.379Z,26.30
2019-05-19T13:14:46.116Z,26.29
2019-05-19T13:17:20.177Z,26.17
2019-05-19T13:19:52.857Z,26.16
2019-05-19T13:22:25.356Z,26.03
2019-05-19T13:24:58.012Z,25.91
2019-05-19T13:27:33.323Z,25.79
2019-05-19T13:30:07.017Z,25.65
2019-05-19T13:32:40.623Z,25.31
2019-05-19T13:35:13.294Z,24.94
2019-05-19T13:37:46.035Z,24.55
2019-05-19T13:40:18.656Z,24.07
2019-05-19T13:42:52.091Z,23.73
2019-05-19T13:45:25.840Z,23.36
2019-05-19T13:48:00.220Z,23.09
2019-05-19T13:50:32.855Z,22.87
2019-05-19T13:53:05.419Z,22.51
2019-05-19T13:55:39.249Z,22.30
2019-05-19T13:58:13.423Z,22.20
2019-05-19T14:00:46.919Z,22.10
2019-05-19T14:03:19.497Z,22.10
2019-05-19T14:05:52.209Z,21.95
2019-05-19T14:08:24.898Z,21.78
2019-05-19T14:10:57.621Z,21.65
2019-05-19T14:13:30.852Z,21.51
2019-05-19T14:16:03.269Z,21.42
2019-05-19T14:18:35.620Z,21.35
2019-05-19T14:21:08.078Z,21.22
2019-05-19T14:23:41.330Z,21.29
2019-05-19T14:26:14.737Z,21.19
2019-05-19T14:28:47.668Z,21.15
2019-05-19T14:31:20.103Z,21.13
2019-05-19T14:33:52.905Z,21.10
2019-05-19T14:36:25.436Z,21.14
2019-05-19T14:39:05.495Z,21.19
2019-05-19T14:41:52.275Z,21.09
2019-05-19T14:44:29.947Z,21.07
2019-05-19T14:47:05.337Z,21.18
2019-05-19T14:49:38.587Z,21.18
2019-05-19T14:52:12.295Z,21.19
2019-05-19T14:54:46.122Z,21.18
2019-05-19T14:57:20.532Z,21.20
2019-05-19T14:59:54.453Z,21.36
2019-05-19T15:02:27.757Z,21.43
2019-05-19T15:05:00.124Z,21.52
2019-05-19T15:07:35.155Z,21.66
2019-05-19T15:10:09.811Z,21.84
2019-05-19T15:12:42.404Z,22.04
2019-05-19T15:15:17.141Z,22.12
2019-05-19T15:17:49.496Z,22.04
2019-05-19T15:20:25.740Z,21.99
2019-05-19T15:23:00.441Z,22.12
2019-05-19T15:25:34.303Z,22.26
2019-05-19T15:28:07.624Z,22.37
2019-05-19T15:30:40.397Z,22.48
2019-05-19T15:33:12.775Z,22.55
2019-05-19T15:35:47.858Z,22.56
2019-05-19T15:38:20.280Z,22.60
2019-05-19T15:40:56.638Z,22.64
2019-05-19T15:43:38.300Z,22.58
2019-05-19T15:46:13.151Z,22.62
2019-05-19T15:48:48.242Z,22.44
2019-05-19T15:51:28.436Z,22.34
2019-05-19T15:54:02.229Z,22.33
2019-05-19T15:56:35.472Z,22.18
2019-05-19T15:59:15.636Z,22.27
2019-05-19T16:01:51.648Z,22.26
2019-05-19T16:04:25.338Z,22.09
2019-05-19T16:06:59.238Z,22.02
2019-05-19T16:09:31.642Z,21.93
2019-05-19T16:12:04.743Z,21.82
2019-05-19T16:14:37.894Z,21.69
2019-05-19T16:17:11.343Z,21.59
2019-05-19T16:19:43.740Z,21.53
2019-05-19T16:22:16.131Z,21.64
2019-05-19T16:24:48.509Z,21.71
2019-05-19T16:27:22.358Z,21.75
2019-05-19T16:29:55.727Z,21.72
2019-05-19T16:32:29.735Z,21.72
2019-05-19T16:35:05.136Z,21.67
2019-05-19T16:37:41.314Z,21.74
2019-05-19T16:40:14.221Z,21.76
2019-05-19T16:42:46.596Z,21.79
2019-05-19T16:45:20.208Z,21.82
2019-05-19T16:47:52.626Z,21.84
2019-05-19T16:50:24.953Z,21.89
2019-05-19T16:52:58.003Z,21.94
2019-05-19T16:55:33.582Z,21.98
2019-05-19T16:58:20.001Z,21.97
2019-05-19T17:00:57.753Z,21.94
2019-05-19T17:03:33.388Z,21.96
2019-05-19T17:06:07.263Z,22.00
2019-05-19T17:08:39.623Z,22.06
2019-05-19T17:11:18.474Z,21.77
2019-05-19T17:13:54.138Z,21.53
2019-05-19T17:16:27.645Z,21.47
2019-05-19T17:19:01.260Z,21.54
2019-05-19T17:21:34.587Z,21.47
2019-05-19T17:24:09.207Z,21.32
2019-05-19T17:26:43.417Z,21.24
2019-05-19T17:29:18.785Z,21.13
2019-05-19T17:32:05.555Z,20.90
2019-05-19T17:34:38.574Z,20.64
2019-05-19T17:37:14.310Z,20.52
2019-05-19T17:39:48.512Z,20.43
2019-05-19T17:42:21.176Z,20.24
2019-05-19T17:44:54.583Z,20.05
2019-05-19T17:47:27.741Z,19.89
2019-05-19T17:50:01.639Z,19.64
2019-05-19T17:52:35.751Z,19.49
2019-05-19T17:55:10.641Z,19.37
2019-05-19T17:57:46.640Z,19.33
2019-05-19T18:00:44.450Z,19.35
2019-05-19T18:03:17.874Z,19.36
2019-05-19T18:05:51.241Z,19.36
2019-05-19T18:08:24.556Z,19.32
2019-05-19T18:10:59.214Z,19.30
2019-05-19T18:13:33.355Z,19.40
2019-05-19T18:16:05.698Z,19.40
2019-05-19T18:18:41.076Z,19.19
2019-05-19T18:21:15.048Z,19.10
2019-05-19T18:23:48.236Z,19.05
2019-05-19T18:26:22.134Z,19.14
2019-05-19T18:28:56.403Z,19.06
2019-05-19T18:31:31.348Z,19.00
2019-05-19T18:34:04.585Z,18.92
2019-05-19T18:36:40.038Z,18.82
2019-05-19T18:39:13.371Z,18.72
2019-05-19T18:41:45.857Z,18.74
2019-05-19T18:44:19.255Z,18.78
2019-05-19T18:46:54.577Z,18.78
2019-05-19T18:49:27.114Z,18.63
2019-05-19T18:52:03.511Z,18.63
2019-05-19T18:54:36.506Z,18.49
2019-05-19T18:57:09.133Z,18.39
2019-05-19T18:59:47.496Z,18.29
2019-05-19T19:02:24.701Z,18.25
2019-05-19T19:05:02.704Z,18.22
2019-05-19T19:07:43.574Z,18.19
2019-05-19T19:10:17.955Z,18.17
2019-05-19T19:12:52.706Z,18.16
2019-05-19T19:15:30.420Z,18.13
2019-05-19T19:18:05.058Z,18.12
2019-05-19T19:20:42.801Z,18.11
2019-05-19T19:23:17.722Z,18.09
2019-05-19T19:25:50.422Z,18.10
2019-05-19T19:28:23.672Z,18.14
2019-05-19T19:30:57.572Z,18.15
2019-05-19T19:33:31.802Z,18.11
2019-05-19T19:36:04.245Z,18.02
2019-05-19T19:38:37.491Z,18.02
2019-05-19T19:41:11.105Z,18.04
2019-05-19T19:43:45.203Z,18.03
2019-05-19T19:46:18.380Z,18.04
2019-05-19T19:48:54.855Z,18.04
2019-05-19T19:51:28.875Z,18.02
2019-05-19T19:54:01.201Z,18.09
2019-05-19T19:56:33.772Z,18.07
2019-05-19T19:59:06.115Z,18.01
2019-05-19T20:01:39.457Z,17.95
2019-05-19T20:04:12.388Z,17.93
2019-05-19T20:06:44.766Z,17.88
2019-05-19T20:09:21.346Z,17.87
2019-05-19T20:11:55.964Z,17.87
2019-05-19T20:14:30.275Z,17.89
2019-05-19T20:17:03.976Z,17.92
2019-05-19T20:19:37.591Z,17.93
2019-05-19T20:22:12.941Z,17.95
2019-05-19T20:24:47.428Z,17.95
2019-05-19T20:27:23.134Z,18.05
2019-05-19T20:29:58.738Z,18.01
2019-05-19T20:32:32.514Z,17.98
2019-05-19T20:35:08.461Z,17.93
2019-05-19T20:37:43.079Z,17.90
2019-05-19T20:40:18.892Z,17.90
2019-05-19T20:42:56.565Z,17.88
2019-05-19T20:45:32.337Z,17.84
2019-05-19T20:48:07.322Z,17.82
2019-05-19T20:50:45.021Z,17.80
2019-05-19T20:53:18.474Z,17.79
2019-05-19T20:55:50.839Z,17.77
2019-05-19T20:58:25.919Z,17.73
2019-05-19T21:01:01.226Z,17.78
2019-05-19T21:03:34.237Z,17.70
2019-05-19T21:06:07.216Z,17.75
2019-05-19T21:08:41.002Z,17.65
2019-05-19T21:11:14.297Z,17.59
2019-05-19T21:13:49.574Z,17.52
2019-05-19T21:16:22.824Z,17.44
2019-05-19T21:18:57.327Z,17.37
2019-05-19T21:21:30.192Z,17.28
2019-05-19T21:24:04.480Z,17.20
2019-05-19T21:26:38.259Z,17.23
2019-05-19T21:29:11.994Z,17.12
2019-05-19T21:31:45.393Z,17.13
2019-05-19T21:34:25.589Z,17.00
2019-05-19T21:36:59.735Z,16.91
2019-05-19T21:39:32.643Z,16.84
2019-05-19T21:42:05.029Z,16.80
2019-05-19T21:44:38.261Z,16.71
2019-05-19T21:47:10.590Z,16.66
2019-05-19T21:49:43.797Z,16.60
2019-05-19T21:52:16.203Z,16.55
2019-05-19T21:54:48.599Z,16.56
2019-05-19T21:57:21.563Z,16.56
2019-05-19T21:59:54.528Z,16.40
2019-05-19T22:02:26.845Z,16.33
2019-05-19T22:05:01.614Z,16.26
2019-05-19T22:07:55.184Z,16.20
2019-05-19T22:10:39.998Z,16.24
2019-05-19T22:13:12.329Z,16.13
2019-05-19T22:15:44.645Z,16.08
2019-05-19T22:18:16.907Z,16.04
2019-05-19T22:20:50.792Z,15.98
2019-05-19T22:23:23.712Z,15.91
2019-05-19T22:25:56.019Z,15.89
2019-05-19T22:28:28.580Z,15.96
2019-05-19T22:31:00.901Z,15.87
2019-05-19T22:33:33.247Z,15.78
2019-05-19T22:36:05.604Z,15.74
2019-05-19T22:38:38.715Z,15.67
2019-05-19T22:41:13.009Z,15.59
2019-05-19T22:43:45.988Z,15.54
2019-05-19T22:46:19.004Z,15.46
2019-05-19T22:48:51.316Z,15.38
2019-05-19T22:51:23.690Z,15.32
2019-05-19T22:53:56.104Z,15.29
2019-05-19T22:56:28.487Z,15.35
2019-05-19T22:59:02.760Z,15.28
2019-05-19T23:01:49.680Z,15.23
2019-05-19T23:04:24.942Z,15.16
2019-05-19T23:06:58.066Z,15.10
2019-05-19T23:09:31.367Z,14.99
2019-05-19T23:12:05.143Z,14.95
2019-05-19T23:14:38.447Z,14.93
2019-05-19T23:17:10.837Z,14.87
2019-05-19T23:19:43.187Z,14.83
2019-05-19T23:22:15.512Z,14.74
2019-05-19T23:24:47.784Z,14.67
2019-05-19T23:27:22.926Z,14.65
2019-05-19T23:29:56.726Z,14.64
2019-05-19T23:32:29.597Z,14.57
2019-05-19T23:35:01.914Z,14.69
2019-05-19T23:37:34.205Z,14.63
2019-05-19T23:40:06.808Z,14.67
2019-05-19T23:42:39.828Z,14.56
2019-05-19T23:45:14.060Z,14.51
2019-05-19T23:47:48.430Z,14.47
2019-05-19T23:50:21.693Z,14.41
2019-05-19T23:52:54.908Z,14.35
2019-05-19T23:55:27.296Z,14.29
2019-05-19T23:58:00.156Z,14.38
